createdAt,value
2018-09-25T00:00:56.782Z,6.30
2018-09-25T00:03:31.796Z,6.00
2018-09-25T00:06:06.659Z,6.20
2018-09-25T00:08:41.677Z,6.30
2018-09-25T00:11:16.712Z,6.70
2018-09-25T00:13:51.719Z,6.70
2018-09-25T00:16:26.894Z,6.40
2018-09-25T00:19:01.800Z,6.10
2018-09-25T00:21:36.879Z,6.10
2018-09-25T00:24:12.024Z,5.90
2018-09-25T00:26:47.194Z,6.00
2018-09-25T00:29:22.352Z,5.90
2018-09-25T00:31:57.424Z,6.10
2018-09-25T00:34:32.633Z,6.40
2018-09-25T00:37:07.647Z,6.20
2018-09-25T00:39:42.465Z,6.40
2018-09-25T00:42:17.300Z,6.40
2018-09-25T00:44:52.170Z,5.90
2018-09-25T00:47:27.077Z,5.80
2018-09-25T00:50:02.164Z,5.90
2018-09-25T00:52:37.262Z,5.80
2018-09-25T00:55:12.467Z,5.90
2018-09-25T00:57:51.678Z,6.10
2018-09-25T01:00:26.671Z,6.00
2018-09-25T01:03:01.455Z,6.00
2018-09-25T01:05:36.503Z,6.00
2018-09-25T01:08:11.541Z,6.10
2018-09-25T01:10:46.397Z,6.00
2018-09-25T01:13:21.508Z,5.90
2018-09-25T01:15:56.750Z,5.70
2018-09-25T01:18:31.724Z,5.70
2018-09-25T01:21:06.589Z,5.50
2018-09-25T01:23:41.684Z,5.40
2018-09-25T01:26:16.884Z,5.40
2018-09-25T01:28:51.941Z,5.30
2018-09-25T01:31:26.883Z,5.40
2018-09-25T01:34:01.972Z,5.90
2018-09-25T01:36:36.886Z,6.10
2018-09-25T01:39:14.188Z,5.90
2018-09-25T01:41:49.332Z,5.60
2018-09-25T01:44:24.471Z,5.50
2018-09-25T01:46:59.487Z,5.50
2018-09-25T01:49:34.518Z,5.30
2018-09-25T01:52:09.445Z,5.60
2018-09-25T01:54:44.287Z,5.60
2018-09-25T01:57:19.271Z,5.40
2018-09-25T01:59:54.316Z,5.40
2018-09-25T02:02:29.429Z,5.40
2018-09-25T02:05:04.430Z,5.40
2018-09-25T02:07:39.446Z,5.50
2018-09-25T02:10:14.613Z,5.40
2018-09-25T02:12:49.738Z,5.60
2018-09-25T02:15:24.704Z,5.40
2018-09-25T02:17:59.783Z,5.50
2018-09-25T02:20:34.832Z,5.70
2018-09-25T02:23:09.874Z,5.40
2018-09-25T02:25:44.948Z,5.30
2018-09-25T02:28:20.102Z,5.30
2018-09-25T02:30:55.095Z,5.50
2018-09-25T02:33:30.203Z,5.30
2018-09-25T02:36:05.366Z,5.20
2018-09-25T02:38:40.299Z,5.20
2018-09-25T02:41:15.414Z,5.40
2018-09-25T02:43:50.538Z,5.60
2018-09-25T02:46:27.615Z,6.00
2018-09-25T02:49:02.601Z,6.00
2018-09-25T02:51:37.682Z,5.90
2018-09-25T02:54:12.744Z,5.70
2018-09-25T02:56:47.779Z,5.40
2018-09-25T02:59:22.733Z,5.50
2018-09-25T03:01:57.774Z,5.70
2018-09-25T03:04:32.692Z,5.30
2018-09-25T03:07:07.690Z,5.10
2018-09-25T03:09:42.634Z,4.80
2018-09-25T03:12:17.643Z,4.90
2018-09-25T03:14:52.664Z,4.80
2018-09-25T03:17:27.595Z,4.80
2018-09-25T03:20:02.602Z,5.10
2018-09-25T03:22:37.524Z,4.80
2018-09-25T03:25:12.713Z,4.70
2018-09-25T03:27:47.768Z,4.60
2018-09-25T03:30:22.637Z,4.80
2018-09-25T03:32:57.486Z,4.80
2018-09-25T03:35:32.298Z,5.30
2018-09-25T03:38:07.287Z,5.30
2018-09-25T03:40:42.193Z,5.10
2018-09-25T03:43:16.950Z,4.90
2018-09-25T03:45:51.767Z,4.70
2018-09-25T03:48:26.776Z,4.80
2018-09-25T03:51:01.769Z,4.70
2018-09-25T03:53:36.713Z,5.00
2018-09-25T03:56:11.767Z,5.00
2018-09-25T03:58:46.869Z,4.80
2018-09-25T04:01:22.854Z,4.40
2018-09-25T04:03:57.701Z,4.40
2018-09-25T04:06:32.677Z,4.40
2018-09-25T04:09:07.731Z,4.40
2018-09-25T04:11:43.063Z,4.40
2018-09-25T04:14:18.221Z,4.40
2018-09-25T04:16:53.232Z,4.20
2018-09-25T04:19:28.168Z,4.10
2018-09-25T04:22:03.125Z,4.30
2018-09-25T04:24:38.074Z,4.30
2018-09-25T04:27:13.135Z,4.50
2018-09-25T04:29:48.112Z,4.90
2018-09-25T04:32:23.249Z,4.70
2018-09-25T04:34:58.283Z,4.70
2018-09-25T04:37:33.354Z,4.60
2018-09-25T04:40:08.322Z,4.80
2018-09-25T04:42:43.314Z,4.50
2018-09-25T04:45:18.458Z,4.60
2018-09-25T04:47:53.357Z,4.50
2018-09-25T04:50:28.278Z,4.30
2018-09-25T04:53:03.359Z,4.20
2018-09-25T04:55:38.419Z,4.00
2018-09-25T04:58:13.474Z,4.10
2018-09-25T05:00:48.558Z,4.60
2018-09-25T05:03:23.529Z,4.80
2018-09-25T05:05:58.803Z,4.40
2018-09-25T05:08:33.995Z,4.10
2018-09-25T05:11:09.104Z,3.80
2018-09-25T05:13:44.035Z,3.70
2018-09-25T05:16:18.962Z,4.10
2018-09-25T05:18:54.089Z,4.50
2018-09-25T05:21:29.264Z,4.40
2018-09-25T05:24:04.271Z,4.30
2018-09-25T05:26:39.496Z,4.30
2018-09-25T05:29:16.733Z,4.10
2018-09-25T05:31:53.186Z,4.00
2018-09-25T05:34:28.169Z,4.00
2018-09-25T05:37:03.251Z,3.90
2018-09-25T05:39:38.291Z,4.00
2018-09-25T05:42:13.516Z,3.80
2018-09-25T05:44:48.699Z,3.80
2018-09-25T05:47:23.979Z,3.80
2018-09-25T05:49:59.215Z,3.90
2018-09-25T05:52:34.088Z,3.90
2018-09-25T05:55:08.896Z,4.10
2018-09-25T05:57:43.711Z,4.40
2018-09-25T06:00:18.776Z,4.40
2018-09-25T06:02:54.041Z,4.30
2018-09-25T06:05:29.066Z,4.70
2018-09-25T06:08:04.416Z,4.70
2018-09-25T06:10:39.233Z,4.70
2018-09-25T06:13:14.256Z,4.70
2018-09-25T06:15:49.134Z,4.80
2018-09-25T06:18:24.393Z,4.80
2018-09-25T06:20:59.620Z,4.60
2018-09-25T06:23:34.502Z,4.50
2018-09-25T06:26:09.396Z,4.70
2018-09-25T06:28:44.736Z,4.70
2018-09-25T06:31:19.743Z,4.90
2018-09-25T06:33:54.543Z,5.20
2018-09-25T06:36:29.974Z,5.30
2018-09-25T06:39:05.001Z,5.50
2018-09-25T06:41:39.922Z,5.60
2018-09-25T06:44:15.038Z,5.70
2018-09-25T06:46:51.505Z,5.90
2018-09-25T06:49:26.761Z,6.00
2018-09-25T06:52:02.205Z,6.00
2018-09-25T06:54:37.313Z,6.00
2018-09-25T06:57:11.936Z,6.00
2018-09-25T06:59:47.996Z,6.10
2018-09-25T07:02:23.030Z,6.00
2018-09-25T07:04:58.021Z,6.00
2018-09-25T07:07:33.516Z,6.00
2018-09-25T07:10:08.904Z,5.80
2018-09-25T07:12:43.846Z,6.00
2018-09-25T07:15:18.731Z,6.20
2018-09-25T07:17:54.286Z,6.20
2018-09-25T07:20:29.243Z,6.20
2018-09-25T07:23:04.119Z,6.20
2018-09-25T07:25:39.288Z,6.20
2018-09-25T07:28:14.292Z,6.20
2018-09-25T07:30:49.317Z,6.40
2018-09-25T07:33:24.340Z,6.40
2018-09-25T07:35:59.406Z,6.40
2018-09-25T07:38:34.578Z,6.30
2018-09-25T07:41:09.502Z,6.50
2018-09-25T07:43:44.316Z,6.60
2018-09-25T07:46:19.331Z,7.00
2018-09-25T07:48:54.465Z,7.20
2018-09-25T07:51:29.475Z,7.30
2018-09-25T07:54:04.712Z,7.30
2018-09-25T07:56:39.571Z,7.30
2018-09-25T07:59:14.489Z,7.60
2018-09-25T08:01:49.650Z,8.00
2018-09-25T08:04:24.553Z,8.30
2018-09-25T08:07:00.767Z,8.50
2018-09-25T08:09:36.538Z,8.50
2018-09-25T08:12:11.512Z,8.90
2018-09-25T08:14:46.489Z,9.20
2018-09-25T08:17:21.414Z,9.30
2018-09-25T08:19:56.595Z,9.30
2018-09-25T08:22:31.670Z,9.50
2018-09-25T08:25:06.773Z,9.90
2018-09-25T08:27:42.246Z,10.00
2018-09-25T08:30:18.331Z,10.00
2018-09-25T08:32:53.671Z,10.10
2018-09-25T08:35:29.831Z,10.40
2018-09-25T08:38:04.774Z,10.30
2018-09-25T08:40:39.545Z,10.40
2018-09-25T08:43:14.637Z,10.70
2018-09-25T08:45:49.768Z,10.70
2018-09-25T08:48:25.535Z,10.90
2018-09-25T08:51:00.588Z,10.90
2018-09-25T08:53:35.739Z,11.20
2018-09-25T08:56:10.808Z,11.20
2018-09-25T08:58:46.053Z,11.20
2018-09-25T09:01:21.188Z,11.00
2018-09-25T09:03:56.386Z,10.80
2018-09-25T09:06:32.005Z,10.90
2018-09-25T09:09:06.995Z,11.10
2018-09-25T09:11:41.969Z,11.10
2018-09-25T09:14:16.881Z,11.60
2018-09-25T09:16:52.336Z,11.60
2018-09-25T09:19:27.443Z,11.40
2018-09-25T09:22:02.301Z,11.10
2018-09-25T09:24:56.855Z,11.40
2018-09-25T09:27:32.069Z,12.10
2018-09-25T09:30:07.056Z,12.10
2018-09-25T09:32:42.371Z,12.40
2018-09-25T09:35:17.579Z,12.50
2018-09-25T09:37:53.018Z,12.60
2018-09-25T09:40:28.200Z,12.60
2018-09-25T09:43:03.738Z,13.00
2018-09-25T09:45:38.699Z,13.30
2018-09-25T09:48:18.159Z,13.40
2018-09-25T09:50:53.097Z,13.50
2018-09-25T09:53:28.068Z,13.20
2018-09-25T09:56:03.228Z,13.10
2018-09-25T09:58:38.139Z,13.40
2018-09-25T10:01:13.231Z,13.70
2018-09-25T10:03:48.226Z,13.90
2018-09-25T10:06:23.426Z,13.90
2018-09-25T10:08:58.915Z,13.90
2018-09-25T10:11:34.160Z,13.90
2018-09-25T10:14:09.054Z,14.20
2018-09-25T10:16:44.203Z,14.20
2018-09-25T10:19:19.522Z,14.20
2018-09-25T10:21:54.597Z,14.20
2018-09-25T10:24:30.057Z,13.80
2018-09-25T10:27:05.224Z,13.60
2018-09-25T10:29:40.349Z,13.30
2018-09-25T10:32:15.507Z,13.40
2018-09-25T10:34:50.575Z,13.30
2018-09-25T10:37:25.887Z,13.10
2018-09-25T10:40:01.054Z,13.00
2018-09-25T10:42:36.027Z,13.10
2018-09-25T10:45:11.596Z,12.90
2018-09-25T10:47:46.765Z,12.90
2018-09-25T10:50:21.773Z,12.90
2018-09-25T10:52:56.672Z,13.10
2018-09-25T10:55:31.823Z,13.30
2018-09-25T10:58:06.814Z,13.50
2018-09-25T11:00:41.814Z,13.80
2018-09-25T11:03:16.966Z,13.90
2018-09-25T11:05:53.992Z,14.10
2018-09-25T11:08:29.111Z,14.50
2018-09-25T11:11:04.224Z,14.90
2018-09-25T11:13:39.315Z,15.10
2018-09-25T11:16:14.408Z,15.10
2018-09-25T11:18:50.729Z,15.20
2018-09-25T11:21:31.530Z,15.50
2018-09-25T11:24:09.296Z,15.60
2018-09-25T11:26:44.523Z,16.00
2018-09-25T11:29:19.792Z,16.20
2018-09-25T11:31:55.060Z,16.30
2018-09-25T11:34:30.135Z,16.60
2018-09-25T11:37:05.375Z,16.30
2018-09-25T11:39:40.558Z,16.30
2018-09-25T11:42:15.611Z,15.80
2018-09-25T11:44:50.605Z,15.70
2018-09-25T11:47:25.749Z,15.70
2018-09-25T11:50:00.621Z,16.10
2018-09-25T11:52:35.713Z,16.30
2018-09-25T11:55:10.621Z,16.00
2018-09-25T11:57:45.836Z,15.80
2018-09-25T12:00:22.023Z,15.70
2018-09-25T12:02:57.967Z,15.60
2018-09-25T12:05:32.994Z,15.60
2018-09-25T12:08:08.203Z,15.40
2018-09-25T12:10:43.255Z,15.30
2018-09-25T12:13:18.368Z,15.20
2018-09-25T12:15:53.456Z,15.40
2018-09-25T12:18:29.014Z,15.20
2018-09-25T12:21:04.182Z,15.10
2018-09-25T12:23:39.199Z,15.20
2018-09-25T12:26:14.163Z,15.00
2018-09-25T12:28:49.191Z,15.00
2018-09-25T12:31:24.217Z,14.70
2018-09-25T12:33:59.392Z,14.60
2018-09-25T12:36:34.474Z,14.70
2018-09-25T12:39:11.921Z,14.50
2018-09-25T12:41:46.820Z,14.40
2018-09-25T12:44:21.786Z,14.30
2018-09-25T12:46:58.971Z,14.20
2018-09-25T12:49:34.162Z,14.40
2018-09-25T12:52:09.124Z,14.60
2018-09-25T12:54:46.256Z,14.60
2018-09-25T12:57:21.715Z,14.70
2018-09-25T12:59:56.752Z,14.50
2018-09-25T13:02:31.960Z,14.50
2018-09-25T13:05:06.788Z,14.70
2018-09-25T13:07:41.879Z,15.00
2018-09-25T13:10:17.038Z,15.20
2018-09-25T13:12:52.021Z,15.20
2018-09-25T13:15:26.995Z,15.40
2018-09-25T13:18:01.801Z,15.70
2018-09-25T13:20:36.799Z,15.90
2018-09-25T13:23:12.138Z,16.00
2018-09-25T13:25:47.065Z,16.10
2018-09-25T13:28:22.217Z,16.20
2018-09-25T13:30:57.067Z,16.30
2018-09-25T13:33:31.981Z,16.50
2018-09-25T13:36:07.024Z,16.60
2018-09-25T13:38:41.900Z,17.00
2018-09-25T13:41:16.913Z,17.20
2018-09-25T13:43:51.724Z,16.90
2018-09-25T13:46:26.780Z,16.90
2018-09-25T13:49:01.791Z,16.90
2018-09-25T13:51:36.824Z,17.10
2018-09-25T13:54:11.944Z,17.10
2018-09-25T13:56:46.825Z,16.80
2018-09-25T13:59:21.913Z,16.70
2018-09-25T14:01:57.022Z,16.80
2018-09-25T14:04:32.101Z,17.30
2018-09-25T14:07:07.111Z,17.50
2018-09-25T14:09:42.428Z,17.60
2018-09-25T14:12:17.419Z,17.70
2018-09-25T14:14:52.302Z,17.70
2018-09-25T14:17:27.338Z,18.00
2018-09-25T14:20:06.914Z,18.30
2018-09-25T14:22:42.499Z,18.60
2018-09-25T14:25:17.339Z,18.20
2018-09-25T14:27:52.533Z,18.20
2018-09-25T14:30:27.606Z,18.40
2018-09-25T14:33:02.562Z,18.70
2018-09-25T14:35:37.500Z,18.20
2018-09-25T14:38:12.619Z,18.50
2018-09-25T14:40:47.570Z,19.00
2018-09-25T14:43:22.381Z,18.70
2018-09-25T14:45:57.539Z,18.70
2018-09-25T14:48:32.755Z,18.90
2018-09-25T14:51:07.720Z,19.10
2018-09-25T14:53:42.991Z,18.90
2018-09-25T14:56:18.011Z,18.90
2018-09-25T14:58:53.393Z,18.80
2018-09-25T15:01:28.536Z,18.90
2018-09-25T15:04:03.675Z,18.90
2018-09-25T15:06:38.782Z,18.80
2018-09-25T15:09:15.275Z,18.70
2018-09-25T15:11:50.963Z,18.90
2018-09-25T15:14:26.063Z,18.80
2018-09-25T15:17:01.367Z,18.40
2018-09-25T15:19:36.129Z,18.20
2018-09-25T15:22:11.599Z,18.30
2018-09-25T15:24:46.339Z,18.20
2018-09-25T15:27:21.755Z,18.20
2018-09-25T15:29:59.661Z,18.40
2018-09-25T15:32:39.713Z,18.50
2018-09-25T15:35:15.020Z,18.20
2018-09-25T15:37:51.025Z,18.40
2018-09-25T15:40:26.071Z,17.90
2018-09-25T15:43:01.264Z,18.00
2018-09-25T15:45:36.229Z,18.00
2018-09-25T15:48:11.219Z,17.90
2018-09-25T15:50:46.291Z,17.70
2018-09-25T15:53:21.202Z,17.60
2018-09-25T15:55:56.289Z,17.50
2018-09-25T15:58:33.359Z,17.50
2018-09-25T16:01:08.541Z,17.30
2018-09-25T16:03:43.719Z,17.20
2018-09-25T16:06:19.808Z,17.30
2018-09-25T16:08:55.060Z,16.80
2018-09-25T16:11:30.119Z,16.50
2018-09-25T16:14:05.266Z,16.10
2018-09-25T16:16:40.209Z,16.10
2018-09-25T16:19:15.248Z,16.30
2018-09-25T16:21:50.151Z,16.30
2018-09-25T16:24:25.247Z,16.10
2018-09-25T16:27:00.156Z,16.00
2018-09-25T16:29:35.276Z,15.70
2018-09-25T16:32:10.352Z,15.60
2018-09-25T16:34:45.734Z,15.40
2018-09-25T16:37:20.846Z,15.20
2018-09-25T16:39:55.872Z,15.10
2018-09-25T16:42:30.847Z,15.10
2018-09-25T16:45:06.409Z,15.30
2018-09-25T16:47:41.568Z,15.00
2018-09-25T16:50:17.101Z,15.00
2018-09-25T16:52:52.122Z,14.60
2018-09-25T16:55:27.186Z,14.40
2018-09-25T16:58:02.133Z,14.40
2018-09-25T17:00:37.190Z,14.30
2018-09-25T17:03:12.209Z,14.60
2018-09-25T17:05:47.247Z,14.50
2018-09-25T17:08:22.423Z,14.40
2018-09-25T17:10:57.302Z,14.10
2018-09-25T17:13:32.443Z,13.40
2018-09-25T17:16:07.319Z,13.70
2018-09-25T17:18:42.595Z,13.90
2018-09-25T17:21:17.886Z,14.00
2018-09-25T17:23:52.803Z,13.90
2018-09-25T17:26:27.891Z,13.30
2018-09-25T17:29:03.455Z,13.00
2018-09-25T17:31:38.467Z,13.00
2018-09-25T17:34:13.891Z,13.00
2018-09-25T17:36:48.939Z,13.40
2018-09-25T17:39:23.774Z,13.50
2018-09-25T17:41:58.897Z,13.00
2018-09-25T17:44:33.965Z,12.90
2018-09-25T17:47:09.092Z,13.10
2018-09-25T17:49:44.217Z,13.30
2018-09-25T17:52:19.533Z,13.30
2018-09-25T17:54:54.291Z,12.80
2018-09-25T17:57:29.408Z,12.30
2018-09-25T18:00:04.432Z,12.50
2018-09-25T18:02:39.330Z,12.50
2018-09-25T18:05:14.426Z,12.20
2018-09-25T18:07:49.699Z,12.20
2018-09-25T18:10:24.766Z,11.90
2018-09-25T18:12:59.924Z,11.70
2018-09-25T18:15:37.549Z,11.80
2018-09-25T18:18:12.897Z,11.40
2018-09-25T18:20:47.919Z,11.20
2018-09-25T18:23:23.016Z,11.00
2018-09-25T18:25:58.188Z,10.90
2018-09-25T18:28:33.305Z,11.30
2018-09-25T18:31:08.057Z,11.80
2018-09-25T18:33:43.136Z,12.00
2018-09-25T18:36:17.997Z,11.70
2018-09-25T18:38:52.801Z,11.40
2018-09-25T18:41:28.189Z,10.90
2018-09-25T18:44:03.281Z,10.40
2018-09-25T18:46:38.384Z,10.40
2018-09-25T18:49:13.439Z,10.80
2018-09-25T18:51:49.527Z,11.30
2018-09-25T18:54:24.389Z,11.60
2018-09-25T18:56:59.521Z,11.60
2018-09-25T18:59:34.479Z,11.00
2018-09-25T19:02:09.559Z,11.20
2018-09-25T19:04:44.608Z,11.30
2018-09-25T19:07:19.633Z,11.00
2018-09-25T19:09:54.727Z,10.70
2018-09-25T19:12:29.993Z,10.20
2018-09-25T19:15:11.905Z,10.40
2018-09-25T19:17:46.861Z,10.20
2018-09-25T19:20:21.896Z,10.60
2018-09-25T19:22:56.930Z,10.90
2018-09-25T19:25:31.937Z,11.20
2018-09-25T19:28:06.781Z,11.00
2018-09-25T19:30:41.985Z,10.10
2018-09-25T19:33:17.307Z,9.80
2018-09-25T19:35:52.272Z,9.80
2018-09-25T19:38:29.236Z,9.70
2018-09-25T19:41:04.385Z,10.10
2018-09-25T19:43:39.150Z,10.50
2018-09-25T19:46:14.082Z,10.60
2018-09-25T19:48:49.069Z,10.60
2018-09-25T19:51:24.015Z,10.10
2018-09-25T19:53:59.136Z,10.00
2018-09-25T19:56:34.028Z,9.50
2018-09-25T19:59:12.579Z,9.10
2018-09-25T20:01:47.375Z,9.40
2018-09-25T20:04:22.690Z,9.50
2018-09-25T20:06:57.831Z,9.80
2018-09-25T20:09:32.843Z,10.10
2018-09-25T20:12:07.735Z,10.10
2018-09-25T20:14:42.632Z,9.90
2018-09-25T20:17:17.624Z,9.40
2018-09-25T20:19:53.621Z,9.10
2018-09-25T20:22:28.318Z,8.90
2018-09-25T20:25:03.274Z,8.70
2018-09-25T20:27:40.176Z,8.70
2018-09-25T20:30:15.058Z,8.50
2018-09-25T20:32:51.155Z,8.70
2018-09-25T20:35:26.137Z,9.10
2018-09-25T20:38:01.198Z,9.50
2018-09-25T20:40:35.999Z,9.50
2018-09-25T20:43:11.058Z,9.10
2018-09-25T20:45:46.112Z,8.70
2018-09-25T20:48:21.013Z,8.50
2018-09-25T20:50:56.103Z,8.30
2018-09-25T20:53:30.872Z,8.30
2018-09-25T20:56:06.020Z,8.30
2018-09-25T20:58:41.708Z,8.50
2018-09-25T21:01:17.325Z,8.50
2018-09-25T21:03:52.462Z,8.80
2018-09-25T21:06:27.512Z,9.00
2018-09-25T21:09:03.215Z,9.30
2018-09-25T21:11:38.165Z,8.80
2018-09-25T21:14:13.886Z,8.20
2018-09-25T21:16:48.869Z,7.80
2018-09-25T21:19:23.808Z,7.60
2018-09-25T21:21:59.939Z,7.40
2018-09-25T21:24:35.669Z,7.50
2018-09-25T21:27:10.845Z,7.60
2018-09-25T21:29:45.705Z,8.30
2018-09-25T21:32:20.675Z,8.30
2018-09-25T21:34:55.431Z,8.20
2018-09-25T21:37:30.592Z,8.20
2018-09-25T21:40:11.300Z,8.00
2018-09-25T21:42:46.357Z,8.30
2018-09-25T21:45:21.520Z,8.30
2018-09-25T21:47:56.587Z,8.80
2018-09-25T21:50:31.417Z,9.00
2018-09-25T21:53:06.493Z,8.90
2018-09-25T21:55:41.426Z,8.20
2018-09-25T21:58:16.456Z,7.60
2018-09-25T22:00:51.366Z,7.60
2018-09-25T22:03:26.340Z,7.50
2018-09-25T22:06:01.474Z,7.20
2018-09-25T22:08:36.454Z,7.40
2018-09-25T22:11:11.307Z,7.40
2018-09-25T22:13:46.455Z,7.40
2018-09-25T22:16:21.451Z,7.20
2018-09-25T22:18:56.544Z,7.00
2018-09-25T22:21:31.361Z,6.90
2018-09-25T22:24:06.267Z,6.90
2018-09-25T22:26:41.249Z,7.00
2018-09-25T22:29:16.344Z,6.90
2018-09-25T22:31:51.388Z,6.90
2018-09-25T22:34:26.460Z,6.70
2018-09-25T22:37:01.509Z,6.70
2018-09-25T22:39:36.506Z,6.60
2018-09-25T22:42:11.385Z,6.50
2018-09-25T22:44:46.283Z,6.50
2018-09-25T22:47:21.202Z,6.70
2018-09-25T22:49:56.345Z,6.70
2018-09-25T22:52:32.248Z,6.50
2018-09-25T22:55:06.938Z,6.50
2018-09-25T22:57:42.040Z,6.50
2018-09-25T23:00:17.061Z,6.60
2018-09-25T23:02:52.314Z,6.90
2018-09-25T23:05:27.442Z,7.30
2018-09-25T23:08:02.542Z,7.50
2018-09-25T23:10:37.637Z,7.50
2018-09-25T23:13:13.107Z,7.20
2018-09-25T23:15:48.200Z,6.80
2018-09-25T23:18:23.254Z,6.70
2018-09-25T23:20:58.171Z,6.70
2018-09-25T23:23:33.188Z,6.60
2018-09-25T23:26:08.162Z,6.50
2018-09-25T23:28:42.949Z,6.50
2018-09-25T23:31:17.800Z,6.40
2018-09-25T23:33:52.786Z,6.50
2018-09-25T23:36:27.743Z,6.50
2018-09-25T23:39:02.624Z,6.80
2018-09-25T23:41:37.456Z,6.80
2018-09-25T23:44:28.455Z,6.90
2018-09-25T23:47:05.355Z,6.70
2018-09-25T23:49:43.999Z,6.60
2018-09-25T23:52:18.528Z,6.60
2018-09-25T23:54:52.139Z,6.50
2018-09-25T23:57:27.825Z,6.70
